Time;durP1;ratioP1;P1;durP2;ratioP2;P2;SDS_P1;SDS_P2;PMS_P1;PMS_P2;Temp;Humidity;BMP_temperature;BMP_pressure;BME280_temperature;BME280_humidity;BME280_pressure;Samples;Min_cycle;Max_cycle;Signal;HPM_P1;HPM_P2
2022/11/01 00:00:17;;;;;;;10.60;7.00;;;14.10;99.90;;;;;;4997040;28;20614;-81
2022/11/01 00:02:43;;;;;;;9.07;8.20;;;13.60;99.90;;;;;;4989817;28;20670;-81
2022/11/01 00:05:09;;;;;;;12.70;8.10;;;13.30;99.90;;;;;;5005790;28;20183;-81
2022/11/01 00:07:35;;;;;;;8.47;6.97;;;13.90;99.90;;;;;;4994924;28;20531;-80
2022/11/01 00:10:00;;;;;;;8.67;7.70;;;14.00;99.90;;;;;;4992680;28;20861;-80
2022/11/01 00:12:26;;;;;;;12.40;7.70;;;13.60;99.90;;;;;;4993480;28;20943;-81
2022/11/01 00:14:51;;;;;;;10.30;7.73;;;13.70;99.90;;;;;;4997080;28;20176;-79
2022/11/01 00:17:17;;;;;;;11.10;7.37;;;14.20;99.90;;;;;;4988860;28;20198;-80
2022/11/01 00:19:42;;;;;;;8.00;7.20;;;13.80;99.90;;;;;;4997515;28;20230;-79
2022/11/01 00:22:08;;;;;;;8.93;7.73;;;13.80;99.90;;;;;;4993559;28;20207;-80
2022/11/01 00:24:33;;;;;;;10.57;6.70;;;14.30;99.90;;;;;;4998739;28;20254;-80
2022/11/01 00:26:59;;;;;;;9.70;7.27;;;14.10;99.90;;;;;;4995550;28;20265;-81
2022/11/01 00:29:25;;;;;;;9.37;7.40;;;14.30;99.90;;;;;;4995639;28;20199;-80
2022/11/01 00:31:51;;;;;;;8.70;7.00;;;14.20;99.90;;;;;;4999712;28;20175;-80
2022/11/01 00:34:18;;;;;;;7.30;6.30;;;14.10;99.90;;;;;;4998251;28;20446;-81
2022/11/01 00:36:43;;;;;;;10.45;8.30;;;14.10;99.90;;;;;;4997127;28;20548;-81
2022/11/01 00:39:13;;;;;;;8.20;7.40;;;14.10;99.90;;;;;;4994313;28;20221;-80
2022/11/01 00:41:38;;;;;;;10.43;7.10;;;14.10;99.90;;;;;;4994988;28;20630;-81
2022/11/01 00:44:04;;;;;;;12.87;7.27;;;14.40;99.90;;;;;;4992566;28;20171;-80
2022/11/01 00:46:30;;;;;;;9.70;7.37;;;14.60;99.90;;;;;;5009608;28;20190;-80
2022/11/01 00:48:56;;;;;;;7.90;6.97;;;14.20;99.90;;;;;;4990573;28;20207;-80
2022/11/01 00:51:21;;;;;;;11.00;6.43;;;14.60;99.90;;;;;;4995344;28;20743;-81
2022/11/01 00:53:47;;;;;;;10.97;7.80;;;14.20;99.90;;;;;;4995906;28;20563;-80
2022/11/01 00:56:13;;;;;;;7.70;6.97;;;14.70;99.90;;;;;;4992959;28;20496;-80
2022/11/01 00:58:38;;;;;;;7.60;6.50;;;14.20;99.90;;;;;;4990644;28;20497;-81
2022/11/01 01:01:04;;;;;;;8.20;6.53;;;14.60;99.90;;;;;;5007901;28;20932;-80
2022/11/01 01:03:30;;;;;;;10.37;7.07;;;14.20;99.90;;;;;;4998655;28;20198;-80
2022/11/01 01:05:56;;;;;;;8.13;6.30;;;14.60;99.90;;;;;;4997127;28;20270;-80
2022/11/01 01:08:22;;;;;;;7.80;6.97;;;14.30;99.90;;;;;;4995604;28;20202;-80
2022/11/01 01:10:47;;;;;;;10.02;7.47;;;14.50;99.90;;;;;;4995687;28;20230;-80
2022/11/01 01:13:13;;;;;;;9.70;6.63;;;14.20;99.90;;;;;;4995729;28;20175;-80
2022/11/01 01:15:39;;;;;;;10.07;7.20;;;14.40;99.90;;;;;;4991502;28;20179;-80
2022/11/01 01:18:05;;;;;;;10.87;7.23;;;14.40;99.90;;;;;;4992651;28;20924;-80
2022/11/01 01:20:31;;;;;;;8.83;7.10;;;14.50;99.90;;;;;;4990294;28;20199;-80
2022/11/01 01:22:56;;;;;;;8.48;6.57;;;13.90;99.90;;;;;;5005490;28;20171;-80
2022/11/01 01:25:22;;;;;;;8.50;7.33;;;14.80;99.90;;;;;;4986246;28;20172;-80
2022/11/01 01:27:48;;;;;;;7.57;6.50;;;15.80;99.90;;;;;;4991010;28;20190;-81
2022/11/01 01:30:14;;;;;;;11.83;7.80;;;14.10;99.90;;;;;;4995393;28;20632;-81
2022/11/01 01:32:40;;;;;;;7.47;6.78;;;14.50;99.90;;;;;;4995283;28;20691;-80
2022/11/01 01:35:06;;;;;;;9.30;7.23;;;14.70;99.90;;;;;;4993627;28;20298;-81
2022/11/01 01:37:32;;;;;;;8.32;7.53;;;14.30;99.90;;;;;;4986549;28;20206;-81
2022/11/01 01:39:57;;;;;;;10.83;7.00;;;14.30;99.90;;;;;;5002456;28;20651;-80
2022/11/01 01:42:40;;;;;;;12.53;7.33;;;14.40;99.90;;;;;;4985927;28;20211;-80
2022/11/01 01:45:25;;;;;;;8.35;7.55;;;14.20;99.90;;;;;;4992451;28;20444;-80
2022/11/01 01:47:52;;;;;;;10.10;7.30;;;14.20;99.90;;;;;;4994926;28;20532;-81
2022/11/01 01:50:27;;;;;;;8.52;7.22;;;14.70;99.90;;;;;;4994769;28;20183;-80
2022/11/01 01:52:58;;;;;;;11.50;8.05;;;14.30;99.90;;;;;;4993873;28;20710;-80
2022/11/01 01:55:31;;;;;;;9.82;8.00;;;14.20;99.90;;;;;;4993613;28;20179;-80
2022/11/01 01:57:57;;;;;;;8.20;7.47;;;14.50;99.90;;;;;;4996683;28;20187;-79
2022/11/01 02:00:23;;;;;;;10.07;7.60;;;14.40;99.90;;;;;;4996613;28;20189;-80
2022/11/01 02:02:49;;;;;;;10.95;7.00;;;14.70;99.90;;;;;;4995015;28;20235;-80
2022/11/01 02:05:54;;;;;;;9.32;7.15;;;14.00;99.90;;;;;;4993617;28;20614;-80
2022/11/01 02:08:28;;;;;;;7.32;6.50;;;14.30;99.90;;;;;;4983267;28;20771;-79
2022/11/01 02:11:03;;;;;;;8.13;7.43;;;14.80;99.90;;;;;;4992081;28;20684;-80
2022/11/01 02:13:30;;;;;;;8.65;6.97;;;14.50;99.90;;;;;;4996463;28;20187;-79
2022/11/01 02:16:18;;;;;;;11.02;7.78;;;14.40;99.90;;;;;;4993064;28;20246;-80
2022/11/01 02:18:53;;;;;;;7.07;6.32;;;14.40;99.90;;;;;;4996182;28;20546;-80
2022/11/01 02:21:52;;;;;;;7.93;7.22;;;14.40;99.90;;;;;;4996953;28;20518;-80
2022/11/01 02:24:51;;;;;;;8.90;7.00;;;14.40;99.90;;;;;;4992632;28;20183;-80
2022/11/01 02:27:23;;;;;;;8.35;6.70;;;14.50;99.90;;;;;;4991138;28;20176;-79
2022/11/01 02:30:09;;;;;;;7.95;6.93;;;14.90;99.90;;;;;;4998040;28;20196;-81
2022/11/01 02:33:17;;;;;;;7.70;6.90;;;14.50;99.90;;;;;;4993812;28;20185;-81
2022/11/01 02:36:04;;;;;;;10.13;6.35;;;14.50;99.90;;;;;;4991695;28;20725;-81
2022/11/01 02:38:34;;;;;;;7.95;7.15;;;14.40;99.90;;;;;;4994565;28;20233;-81
2022/11/01 02:41:10;;;;;;;10.18;7.00;;;14.50;99.90;;;;;;4992669;28;20213;-80
2022/11/01 02:43:54;;;;;;;8.63;6.85;;;14.60;99.90;;;;;;4992427;28;20191;-81
2022/11/01 02:49:09;;;;;;;7.20;6.50;;;14.80;99.90;;;;;;4986503;28;20273;-81
2022/11/01 02:51:36;;;;;;;8.00;6.82;;;14.60;99.90;;;;;;4987769;28;20189;-84
2022/11/01 02:54:12;;;;;;;8.60;6.82;;;14.40;99.90;;;;;;4982497;28;20242;-84
2022/11/01 02:56:38;;;;;;;10.02;6.78;;;14.60;99.90;;;;;;4987988;28;20187;-86
2022/11/01 02:59:07;;;;;;;7.65;6.38;;;14.90;99.90;;;;;;4981146;28;20495;-86
2022/11/01 03:01:34;;;;;;;8.27;6.65;;;14.70;99.90;;;;;;4989141;28;20255;-89
2022/11/01 03:04:01;;;;;;;9.07;6.63;;;14.90;99.90;;;;;;4988714;28;20195;-88
2022/11/01 03:06:38;;;;;;;11.32;6.47;;;14.80;99.90;;;;;;4991458;28;20176;-87
2022/11/01 03:09:08;;;;;;;7.25;6.00;;;14.70;99.90;;;;;;4992494;28;20282;-83
2022/11/01 03:11:47;;;;;;;7.03;6.32;;;14.40;99.90;;;;;;4987928;28;20179;-87
2022/11/01 03:14:16;;;;;;;7.40;6.63;;;14.70;99.90;;;;;;4986844;28;20195;-85
2022/11/01 03:16:57;;;;;;;8.10;6.65;;;14.80;99.90;;;;;;4982435;28;20187;-85
2022/11/01 03:19:27;;;;;;;10.27;5.95;;;14.60;99.90;;;;;;4989467;28;20211;-85
2022/11/01 03:22:20;;;;;;;10.35;6.20;;;14.60;99.90;;;;;;4987460;28;20208;-87
2022/11/01 03:28:02;;;;;;;7.53;5.63;;;14.60;99.90;;;;;;4993607;28;20195;-86
2022/11/01 03:30:30;;;;;;;5.72;5.18;;;16.00;99.90;;;;;;4991700;28;20280;-86
2022/11/01 03:32:57;;;;;;;7.80;7.00;;;14.80;99.90;;;;;;4995070;28;20259;-86
2022/11/01 03:35:26;;;;;;;6.95;6.15;;;14.70;99.90;;;;;;4997484;28;20172;-86
2022/11/01 03:37:55;;;;;;;7.28;6.40;;;14.80;99.90;;;;;;4992761;28;20203;-87
2022/11/01 03:40:23;;;;;;;6.60;5.95;;;14.80;99.90;;;;;;4986459;28;20191;-84
2022/11/01 03:42:50;;;;;;;8.40;6.63;;;14.90;99.90;;;;;;4992193;28;20183;-85
2022/11/01 03:45:22;;;;;;;7.25;6.28;;;15.20;99.90;;;;;;4991713;28;20286;-87
2022/11/01 03:47:47;;;;;;;7.20;5.32;;;14.40;99.90;;;;;;4989582;28;20207;-87
2022/11/01 03:50:22;;;;;;;7.57;5.70;;;14.40;99.90;;;;;;4992852;28;20291;-87
2022/11/01 03:52:48;;;;;;;8.45;6.00;;;14.70;99.90;;;;;;4988513;28;20182;-86
2022/11/01 03:55:18;;;;;;;7.05;6.10;;;14.80;99.90;;;;;;4989543;28;20179;-86
2022/11/01 03:57:51;;;;;;;6.60;5.80;;;14.80;99.90;;;;;;4990524;28;20180;-86
2022/11/01 04:00:22;;;;;;;8.10;5.78;;;14.80;99.90;;;;;;4998413;28;20299;-85
2022/11/01 04:02:52;;;;;;;8.20;5.75;;;14.60;99.90;;;;;;4989753;28;20206;-85
2022/11/01 04:05:19;;;;;;;10.75;6.55;;;14.80;99.90;;;;;;4993253;28;20187;-85
2022/11/01 04:07:45;;;;;;;8.00;5.60;;;14.60;99.90;;;;;;4998020;28;20741;-85
2022/11/01 04:10:12;;;;;;;8.73;5.78;;;15.50;99.90;;;;;;4995899;28;20267;-85
2022/11/01 04:12:38;;;;;;;8.30;6.30;;;14.60;99.90;;;;;;5001041;28;20607;-85
2022/11/01 04:20:45;;;;;;;8.27;6.05;;;14.90;99.90;;;;;;4993650;28;20291;-85
2022/11/01 04:23:11;;;;;;;9.20;6.40;;;14.70;99.90;;;;;;4991058;28;20275;-85
2022/11/01 04:25:36;;;;;;;9.20;6.60;;;15.00;99.90;;;;;;4995438;28;20190;-85
2022/11/01 04:28:02;;;;;;;6.87;6.20;;;14.50;99.90;;;;;;5000245;28;20210;-85
2022/11/01 04:30:28;;;;;;;8.40;5.83;;;14.70;99.90;;;;;;4993093;28;20186;-85
2022/11/01 04:32:54;;;;;;;7.57;5.70;;;14.80;99.90;;;;;;5004274;28;20241;-84
2022/11/01 04:35:21;;;;;;;6.63;5.50;;;14.70;99.90;;;;;;5006893;28;20183;-85
2022/11/01 04:37:47;;;;;;;9.50;5.40;;;14.50;99.90;;;;;;4996665;28;20529;-85
2022/11/01 04:40:14;;;;;;;8.93;5.65;;;14.60;99.90;;;;;;4998028;28;20175;-85
2022/11/01 04:42:40;;;;;;;9.02;5.40;;;14.90;99.90;;;;;;4996438;28;20199;-85
2022/11/01 04:45:07;;;;;;;7.78;5.43;;;16.90;99.90;;;;;;4995486;28;20182;-85
2022/11/01 04:47:33;;;;;;;6.05;5.18;;;14.60;99.90;;;;;;4990449;28;20256;-84
2022/11/01 04:49:59;;;;;;;5.85;4.25;;;14.30;99.90;;;;;;4992443;28;20187;-85
2022/11/01 04:52:25;;;;;;;5.60;3.80;;;14.70;99.90;;;;;;4998776;28;20178;-85
2022/11/01 04:54:51;;;;;;;8.68;4.97;;;15.30;99.90;;;;;;4991259;28;20795;-85
2022/11/01 04:57:23;;;;;;;6.63;3.70;;;15.80;99.90;;;;;;4980234;28;20183;-84
2022/11/01 04:59:53;;;;;;;6.50;3.35;;;15.60;99.90;;;;;;4992800;28;20263;-85
2022/11/01 05:02:20;;;;;;;3.85;3.45;;;15.80;99.90;;;;;;4988754;28;20580;-84
2022/11/01 05:04:45;;;;;;;3.50;3.20;;;16.10;99.90;;;;;;4982951;28;20235;-85
2022/11/01 05:07:11;;;;;;;8.90;3.87;;;16.50;99.90;;;;;;4993320;28;20294;-84
2022/11/01 05:09:37;;;;;;;4.10;3.33;;;16.30;99.90;;;;;;5000626;28;20199;-86
2022/11/01 05:12:03;;;;;;;3.30;2.83;;;16.30;99.90;;;;;;4992567;28;20202;-84
2022/11/01 05:14:28;;;;;;;7.67;3.17;;;16.50;99.90;;;;;;4984242;28;20188;-85
2022/11/01 05:16:55;;;;;;;4.10;2.60;;;16.70;99.90;;;;;;4988524;28;20256;-85
2022/11/01 05:19:20;;;;;;;5.43;3.13;;;16.70;99.90;;;;;;4996311;28;20206;-84
2022/11/01 05:21:46;;;;;;;3.90;2.57;;;16.50;99.90;;;;;;5000525;28;20207;-85
2022/11/01 05:24:12;;;;;;;6.30;3.00;;;16.80;99.90;;;;;;4987434;28;20191;-85
2022/11/01 05:26:37;;;;;;;5.27;3.60;;;17.30;99.90;;;;;;4997165;28;20180;-86
2022/11/01 05:29:03;;;;;;;3.53;2.53;;;17.00;99.90;;;;;;4997394;28;20211;-85
2022/11/01 05:31:28;;;;;;;3.73;2.80;;;17.40;99.90;;;;;;4993349;28;20191;-86
2022/11/01 05:33:54;;;;;;;3.43;2.97;;;18.20;99.90;;;;;;5000270;28;20183;-86
2022/11/01 05:36:19;;;;;;;4.63;2.63;;;17.40;99.90;;;;;;4987671;28;20222;-85
2022/11/01 05:38:45;;;;;;;3.83;2.20;;;16.80;99.90;;;;;;4990932;28;20227;-86
2022/11/01 05:41:10;;;;;;;3.80;1.70;;;17.20;99.90;;;;;;4989113;28;20266;-86
2022/11/01 05:43:36;;;;;;;3.40;1.80;;;17.10;99.90;;;;;;4988535;28;20214;-85
2022/11/01 05:46:03;;;;;;;2.30;1.90;;;17.60;99.90;;;;;;4988446;28;20311;-85
2022/11/01 05:48:29;;;;;;;4.82;2.15;;;17.10;99.90;;;;;;4986631;28;20235;-86
2022/11/01 05:50:54;;;;;;;5.03;2.47;;;17.50;99.90;;;;;;4988315;28;20222;-86
2022/11/01 05:53:20;;;;;;;2.07;1.73;;;17.00;99.90;;;;;;4985467;28;20180;-86
2022/11/01 05:55:45;;;;;;;2.20;2.00;;;17.60;99.90;;;;;;4990025;28;20683;-85
2022/11/01 05:58:11;;;;;;;2.10;1.73;;;18.10;99.90;;;;;;4987706;28;20305;-85
2022/11/01 06:00:36;;;;;;;2.70;1.67;;;17.50;99.90;;;;;;4990439;28;20191;-86
2022/11/01 06:03:02;;;;;;;2.90;2.00;;;18.50;99.90;;;;;;4987877;28;20168;-84
2022/11/01 06:05:29;;;;;;;2.97;1.80;;;17.30;99.90;;;;;;4982243;28;20175;-86
2022/11/01 06:07:55;;;;;;;2.70;1.52;;;16.80;99.90;;;;;;4987948;28;20431;-86
2022/11/01 06:10:21;;;;;;;3.50;1.53;;;17.40;99.90;;;;;;4990234;28;20567;-85
2022/11/01 06:12:46;;;;;;;3.50;1.83;;;17.50;99.90;;;;;;4995514;28;20274;-86
2022/11/01 06:15:12;;;;;;;2.47;2.10;;;17.20;99.90;;;;;;4987796;28;20470;-85
2022/11/01 06:17:37;;;;;;;3.70;1.90;;;16.90;99.90;;;;;;4988597;28;20274;-85
2022/11/01 06:20:04;;;;;;;2.07;1.87;;;17.30;99.90;;;;;;4989117;28;20683;-85
2022/11/01 06:22:29;;;;;;;1.70;1.60;;;16.80;99.90;;;;;;4983773;28;20209;-85
2022/11/01 06:24:55;;;;;;;1.57;1.33;;;16.70;99.90;;;;;;4984514;28;20640;-82
2022/11/01 06:27:20;;;;;;;1.67;1.30;;;16.50;99.90;;;;;;4990205;28;20190;-85
2022/11/01 06:29:46;;;;;;;1.57;1.10;;;17.10;99.90;;;;;;4988157;28;20306;-85
2022/11/01 06:32:11;;;;;;;2.50;1.60;;;16.80;99.90;;;;;;4981134;28;20192;-86
2022/11/01 06:34:37;;;;;;;2.33;1.50;;;17.20;99.90;;;;;;4990792;28;20187;-86
2022/11/01 06:37:02;;;;;;;1.63;1.53;;;16.80;99.90;;;;;;4988829;28;20207;-85
2022/11/01 06:39:28;;;;;;;2.27;2.07;;;17.30;99.90;;;;;;4988009;28;20302;-85
2022/11/01 06:41:54;;;;;;;2.80;1.40;;;17.00;99.90;;;;;;4992308;28;20219;-81
2022/11/01 06:44:20;;;;;;;2.13;1.60;;;16.70;99.90;;;;;;4985072;28;20191;-85
2022/11/01 06:46:45;;;;;;;1.77;1.30;;;16.90;99.90;;;;;;5003084;28;20586;-85
2022/11/01 06:49:11;;;;;;;4.70;1.70;;;16.80;99.90;;;;;;4987974;28;20209;-85
2022/11/01 06:51:37;;;;;;;3.40;1.70;;;16.60;99.90;;;;;;4989321;28;20184;-85
2022/11/01 06:54:02;;;;;;;1.87;1.50;;;16.30;99.90;;;;;;4983507;28;20544;-86
2022/11/01 06:56:28;;;;;;;1.37;1.27;;;16.60;99.90;;;;;;4987906;28;20559;-86
2022/11/01 06:58:53;;;;;;;2.17;1.20;;;16.80;99.90;;;;;;4990281;28;20738;-86
2022/11/01 07:01:20;;;;;;;1.73;1.10;;;16.80;99.90;;;;;;4994844;28;20299;-86
2022/11/01 07:03:49;;;;;;;2.70;1.35;;;16.90;99.90;;;;;;4992444;28;20628;-84
2022/11/01 07:06:15;;;;;;;1.08;0.98;;;16.60;99.90;;;;;;4988217;28;20230;-84
2022/11/01 07:08:41;;;;;;;1.83;1.05;;;17.00;99.90;;;;;;4992680;28;20203;-84
2022/11/01 07:11:06;;;;;;;1.30;1.20;;;17.10;99.90;;;;;;4997970;28;20183;-83
2022/11/01 07:13:33;;;;;;;2.30;1.40;;;17.00;99.90;;;;;;4992664;28;20189;-82
2022/11/01 07:16:05;;;;;;;1.80;1.70;;;17.00;99.90;;;;;;4989460;28;20179;-82
2022/11/01 07:18:31;;;;;;;2.13;1.60;;;16.80;99.90;;;;;;4982301;28;20218;-82
2022/11/01 07:21:00;;;;;;;1.90;1.45;;;17.10;99.90;;;;;;4992324;28;20365;-82
2022/11/01 07:23:28;;;;;;;3.28;1.80;;;17.00;99.90;;;;;;4989240;28;20264;-81
2022/11/01 07:25:53;;;;;;;3.60;1.05;;;18.20;99.90;;;;;;4984825;28;20179;-82
2022/11/01 07:28:19;;;;;;;1.57;1.17;;;17.80;99.90;;;;;;4990903;28;20210;-82
2022/11/01 07:30:52;;;;;;;1.80;1.20;;;17.00;99.90;;;;;;4990038;28;20187;-81
2022/11/01 07:33:18;;;;;;;1.55;1.30;;;17.60;99.90;;;;;;4988814;28;20198;-82
2022/11/01 07:35:44;;;;;;;1.15;1.05;;;17.20;99.90;;;;;;4992598;28;20273;-82
2022/11/01 07:38:10;;;;;;;1.60;1.30;;;17.30;99.90;;;;;;4992304;28;20753;-82
2022/11/01 07:40:37;;;;;;;1.37;1.27;;;18.30;99.90;;;;;;4994822;28;20318;-82
2022/11/01 07:43:03;;;;;;;1.70;1.60;;;17.60;99.90;;;;;;4996216;28;20721;-82
2022/11/01 07:45:30;;;;;;;2.00;1.80;;;17.60;99.90;;;;;;5000476;28;20191;-82
2022/11/01 07:48:01;;;;;;;2.03;1.20;;;17.80;99.90;;;;;;4993339;28;20210;-83
2022/11/01 07:50:28;;;;;;;1.30;1.20;;;17.40;99.90;;;;;;4991726;28;20578;-83
2022/11/01 07:53:10;;;;;;;1.98;1.40;;;17.10;99.90;;;;;;4992647;28;20684;-83
2022/11/01 07:55:37;;;;;;;1.45;1.35;;;17.40;99.90;;;;;;4988741;28;20225;-82
2022/11/01 07:58:03;;;;;;;2.08;1.00;;;17.00;99.90;;;;;;4984631;28;20210;-81
2022/11/01 08:00:29;;;;;;;1.00;0.90;;;17.60;99.90;;;;;;4988931;28;20322;-82
2022/11/01 08:03:06;;;;;;;1.60;0.70;;;17.20;99.90;;;;;;4986541;28;20294;-81
2022/11/01 08:05:32;;;;;;;1.08;0.98;;;17.50;99.90;;;;;;4989237;28;20198;-83
2022/11/01 08:07:58;;;;;;;1.58;1.10;;;17.20;99.90;;;;;;4985767;28;20187;-83
2022/11/01 08:10:24;;;;;;;0.90;0.83;;;18.00;99.90;;;;;;4988406;28;20175;-83
2022/11/01 08:12:50;;;;;;;1.00;0.82;;;17.90;99.90;;;;;;4987226;28;20446;-83
2022/11/01 08:15:15;;;;;;;1.20;0.70;;;17.70;99.90;;;;;;4989825;28;20241;-82
2022/11/01 08:17:41;;;;;;;0.70;0.67;;;17.70;99.90;;;;;;4985601;28;20194;-82
2022/11/01 08:20:07;;;;;;;2.83;0.87;;;17.80;99.90;;;;;;4997490;28;20186;-83
2022/11/01 08:22:36;;;;;;;2.65;0.80;;;17.80;99.90;;;;;;4992643;28;20755;-83
2022/11/01 08:25:02;;;;;;;1.05;0.80;;;18.20;99.90;;;;;;4994225;28;20191;-83
2022/11/01 08:27:28;;;;;;;1.13;0.90;;;18.00;99.90;;;;;;4996481;28;20192;-83
2022/11/01 08:29:53;;;;;;;1.53;1.00;;;18.50;99.90;;;;;;4999073;28;20258;-81
2022/11/01 08:32:20;;;;;;;1.87;1.03;;;18.50;99.90;;;;;;4987878;28;20211;-82
2022/11/01 08:34:47;;;;;;;1.65;1.10;;;18.60;99.90;;;;;;4990980;28;20183;-83
2022/11/01 08:37:13;;;;;;;1.00;0.90;;;18.60;99.90;;;;;;4989276;28;20218;-83
2022/11/01 08:39:38;;;;;;;1.07;0.87;;;18.80;99.90;;;;;;4989060;28;20700;-83
2022/11/01 08:42:04;;;;;;;1.20;1.00;;;19.10;99.90;;;;;;4990998;28;20633;-84
2022/11/01 08:44:31;;;;;;;1.53;0.93;;;18.80;99.90;;;;;;4991376;28;20204;-83
2022/11/01 08:46:59;;;;;;;0.80;0.80;;;18.90;99.90;;;;;;4983615;28;20190;-83
2022/11/01 08:49:25;;;;;;;2.08;0.98;;;19.20;99.90;;;;;;4984293;28;20270;-82
2022/11/01 08:51:51;;;;;;;1.10;1.00;;;19.20;99.90;;;;;;4982399;28;20196;-82
2022/11/01 08:54:16;;;;;;;1.87;0.80;;;19.50;99.90;;;;;;4984975;28;20951;-83
2022/11/01 08:56:42;;;;;;;1.37;1.27;;;19.30;99.90;;;;;;4988794;28;20413;-84
2022/11/01 08:59:08;;;;;;;1.17;1.07;;;18.80;99.90;;;;;;5001066;28;20358;-85
2022/11/01 09:01:34;;;;;;;1.20;1.10;;;19.20;99.90;;;;;;4987437;28;20310;-82
2022/11/01 09:04:00;;;;;;;0.80;0.80;;;19.40;99.90;;;;;;4988760;28;20695;-84
2022/11/01 09:06:27;;;;;;;1.20;0.93;;;19.00;99.90;;;;;;4987583;28;20187;-83
2022/11/01 09:08:53;;;;;;;2.17;0.90;;;19.20;99.90;;;;;;4987677;28;20200;-84
2022/11/01 09:11:20;;;;;;;1.08;0.85;;;19.00;99.90;;;;;;4987109;28;20234;-84
2022/11/01 09:13:45;;;;;;;1.15;1.05;;;19.50;99.90;;;;;;4997247;28;20175;-84
2022/11/01 09:16:11;;;;;;;0.93;0.87;;;19.00;99.90;;;;;;4990055;28;20223;-83
2022/11/01 09:18:36;;;;;;;1.37;1.00;;;19.50;99.90;;;;;;5007086;28;20200;-84
2022/11/01 09:21:02;;;;;;;1.93;1.40;;;19.70;99.90;;;;;;4991496;28;20191;-83
2022/11/01 09:23:28;;;;;;;1.08;0.98;;;19.10;99.90;;;;;;4996728;28;20237;-83
2022/11/01 09:26:05;;;;;;;1.20;1.10;;;19.10;99.90;;;;;;4998491;28;20180;-83
2022/11/01 09:28:31;;;;;;;2.75;1.50;;;19.20;99.90;;;;;;5002824;28;20202;-84
2022/11/01 09:31:01;;;;;;;1.20;1.10;;;19.50;99.90;;;;;;4985506;28;20210;-84
2022/11/01 09:33:26;;;;;;;1.63;0.98;;;19.30;99.90;;;;;;4984850;28;20195;-85
2022/11/01 09:35:53;;;;;;;1.00;0.90;;;19.30;99.90;;;;;;4990349;28;20683;-84
2022/11/01 09:38:18;;;;;;;1.10;0.80;;;19.50;99.90;;;;;;4982675;28;20219;-85
2022/11/01 09:40:47;;;;;;;0.90;0.80;;;19.80;99.90;;;;;;4996509;28;20184;-85
2022/11/01 09:43:20;;;;;;;2.30;1.08;;;19.90;99.90;;;;;;4985455;28;20173;-82
2022/11/01 09:45:48;;;;;;;0.90;0.80;;;19.60;99.90;;;;;;4993678;28;20264;-85
2022/11/01 09:48:14;;;;;;;1.08;0.80;;;20.10;99.90;;;;;;4994364;28;20295;-85
2022/11/01 09:50:42;;;;;;;2.65;0.80;;;20.60;99.90;;;;;;4990908;28;20195;-84
2022/11/01 09:53:14;;;;;;;0.70;0.70;;;20.70;99.90;;;;;;4993561;28;20576;-84
2022/11/01 09:55:48;;;;;;;1.38;0.70;;;20.00;99.90;;;;;;4997343;28;20175;-85
2022/11/01 09:58:41;;;;;;;0.70;0.60;;;19.90;99.90;;;;;;4997640;28;20229;-85
2022/11/01 10:01:34;;;;;;;0.88;0.88;;;20.40;99.90;;;;;;4991251;28;20207;-85
2022/11/01 10:04:27;;;;;;;1.27;1.10;;;20.00;99.90;;;;;;5002830;28;20541;-85
2022/11/01 10:07:03;;;;;;;4.45;1.27;;;20.10;99.90;;;;;;4998546;28;20274;-84
2022/11/01 10:09:52;;;;;;;5.03;1.50;;;20.20;99.90;;;;;;4988366;28;20262;-84
2022/11/01 10:12:46;;;;;;;1.98;1.00;;;20.50;99.90;;;;;;4984380;28;20183;-84
2022/11/01 10:15:52;;;;;;;1.63;0.80;;;20.40;99.80;;;;;;4997840;28;20178;-84
2022/11/01 10:18:28;;;;;;;1.65;1.13;;;20.60;99.30;;;;;;4983973;28;20578;-85
2022/11/01 10:20:56;;;;;;;1.63;0.90;;;20.20;98.60;;;;;;4991034;28;20198;-85
2022/11/01 10:23:49;;;;;;;1.00;0.80;;;21.10;98.80;;;;;;4991232;28;20212;-83
2022/11/01 10:26:26;;;;;;;2.28;1.20;;;20.70;98.10;;;;;;4997159;28;20175;-83
2022/11/01 10:28:58;;;;;;;1.38;1.27;;;21.00;98.40;;;;;;4999903;28;20201;-85
2022/11/01 10:31:26;;;;;;;1.33;1.10;;;21.00;97.60;;;;;;4998362;28;20728;-84
2022/11/01 10:34:01;;;;;;;1.75;1.02;;;21.50;97.70;;;;;;5000378;28;20266;-84
2022/11/01 10:36:33;;;;;;;1.38;1.00;;;21.80;97.40;;;;;;5000393;28;20722;-84
2022/11/01 10:39:29;;;;;;;1.63;1.17;;;21.30;96.80;;;;;;5001958;28;20254;-83
2022/11/01 10:41:54;;;;;;;1.48;1.15;;;21.40;96.40;;;;;;4982653;28;20232;-84
2022/11/01 10:44:32;;;;;;;1.97;1.00;;;21.60;96.40;;;;;;4998580;28;20205;-84
2022/11/01 10:47:01;;;;;;;1.70;1.17;;;22.20;94.90;;;;;;4988437;28;20203;-85
2022/11/01 10:49:34;;;;;;;1.67;1.00;;;22.10;94.40;;;;;;5005128;28;20467;-83
2022/11/01 10:52:06;;;;;;;1.42;1.00;;;22.10;94.60;;;;;;5012032;28;20180;-84
2022/11/01 10:54:36;;;;;;;3.08;1.60;;;22.50;94.70;;;;;;4985141;28;20191;-84
2022/11/01 10:57:07;;;;;;;1.27;1.00;;;21.40;94.30;;;;;;4993429;28;20486;-83
2022/11/01 10:59:34;;;;;;;1.95;1.05;;;21.70;94.90;;;;;;5000494;28;20204;-85
2022/11/01 11:02:05;;;;;;;1.67;1.10;;;21.50;95.10;;;;;;4988127;28;20708;-84
2022/11/01 11:04:31;;;;;;;2.17;1.55;;;21.30;95.00;;;;;;4984086;28;20610;-84
2022/11/01 11:06:56;;;;;;;1.30;1.20;;;20.80;95.30;;;;;;4991281;28;20188;-87
2022/11/01 11:09:35;;;;;;;6.20;1.63;;;21.00;95.90;;;;;;4994924;28;20232;-86
2022/11/01 11:12:16;;;;;;;1.40;1.20;;;20.50;95.70;;;;;;4993250;28;20226;-91
2022/11/01 11:14:44;;;;;;;2.15;1.42;;;20.30;95.90;;;;;;4998219;28;20636;-86
2022/11/01 11:17:29;;;;;;;2.47;1.40;;;20.90;96.50;;;;;;4994040;28;20184;-89
2022/11/01 11:20:01;;;;;;;1.40;1.10;;;20.20;96.40;;;;;;5009166;28;20203;-89
2022/11/01 11:22:27;;;;;;;1.85;1.50;;;20.70;96.60;;;;;;4988162;28;20234;-83
2022/11/01 11:24:57;;;;;;;1.53;1.30;;;20.40;96.50;;;;;;4988251;28;20211;-90
2022/11/01 11:27:28;;;;;;;1.30;1.20;;;20.70;96.40;;;;;;4989499;28;20516;-87
2022/11/01 11:30:00;;;;;;;2.80;1.20;;;20.50;96.10;;;;;;4994758;28;20195;-86
2022/11/01 11:32:32;;;;;;;1.35;0.90;;;20.50;96.00;;;;;;4995101;28;20180;-87
2022/11/01 11:35:05;;;;;;;1.50;1.40;;;20.90;96.30;;;;;;5019184;28;20194;-87
2022/11/01 11:37:33;;;;;;;1.30;1.00;;;20.40;95.60;;;;;;5000683;28;20198;-82
2022/11/01 11:40:16;;;;;;;4.68;1.10;;;21.00;95.30;;;;;;4990604;28;20222;-84
2022/11/01 11:42:43;;;;;;;1.70;0.90;;;20.90;95.10;;;;;;4988005;28;20238;-81
2022/11/01 11:45:20;;;;;;;1.40;1.15;;;21.10;95.10;;;;;;4989002;28;20218;-83
2022/11/01 11:47:46;;;;;;;1.55;0.98;;;21.00;95.30;;;;;;4991601;28;20270;-89
2022/11/01 11:50:18;;;;;;;1.15;1.05;;;21.60;95.40;;;;;;4994898;28;20176;-88
2022/11/01 11:52:46;;;;;;;3.25;1.40;;;21.00;95.40;;;;;;4989146;28;20656;-85
2022/11/01 11:55:34;;;;;;;1.90;1.20;;;21.40;95.40;;;;;;4994877;28;20211;-88
2022/11/01 11:58:01;;;;;;;2.25;1.30;;;20.80;94.60;;;;;;4989509;28;20184;-89
2022/11/01 12:00:31;;;;;;;2.17;1.30;;;21.40;95.00;;;;;;4992574;28;20187;-88
2022/11/01 12:03:03;;;;;;;1.60;1.10;;;20.70;94.60;;;;;;4992340;28;20211;-86
2022/11/01 12:05:28;;;;;;;1.67;1.20;;;21.00;94.50;;;;;;4996809;28;20553;-87
2022/11/01 12:07:56;;;;;;;1.33;1.00;;;21.00;94.70;;;;;;4990560;28;20187;-86
2022/11/01 12:10:38;;;;;;;1.70;1.20;;;21.00;94.70;;;;;;4991983;28;20179;-85
2022/11/01 12:13:31;;;;;;;1.23;0.98;;;20.30;94.30;;;;;;4986073;28;20184;-85
2022/11/01 12:16:08;;;;;;;3.30;1.15;;;20.60;94.60;;;;;;4992439;28;20266;-90
2022/11/01 12:18:43;;;;;;;1.60;1.30;;;20.70;94.60;;;;;;4999292;28;20199;-89
2022/11/01 12:21:40;;;;;;;2.50;1.40;;;20.90;95.00;;;;;;4994437;28;20211;-90
2022/11/01 12:24:30;;;;;;;1.52;1.17;;;20.40;94.80;;;;;;4984449;28;20187;-87
2022/11/01 12:27:01;;;;;;;1.80;1.10;;;20.30;94.80;;;;;;4991090;28;20187;-85
2022/11/01 12:29:43;;;;;;;2.38;1.15;;;20.50;95.00;;;;;;4991810;28;20208;-86
2022/11/01 12:32:17;;;;;;;1.98;1.30;;;20.50;95.70;;;;;;4990528;28;20183;-87
2022/11/01 12:34:44;;;;;;;2.40;1.80;;;20.90;96.40;;;;;;4991681;28;20744;-87
2022/11/01 12:37:22;;;;;;;2.70;1.40;;;21.10;96.70;;;;;;4992504;28;20187;-91
2022/11/01 12:40:19;;;;;;;2.67;1.40;;;20.30;96.40;;;;;;4990080;28;20593;-94
2022/11/01 12:43:02;;;;;;;3.47;1.58;;;20.20;96.60;;;;;;4990938;28;20290;-86
2022/11/01 12:45:34;;;;;;;4.43;1.83;;;19.80;97.80;;;;;;4987549;28;20187;-83
2022/11/01 12:48:05;;;;;;;3.58;1.40;;;20.90;98.90;;;;;;4983475;28;20714;-84
2022/11/01 12:50:43;;;;;;;1.80;1.38;;;21.00;99.10;;;;;;4990099;28;20198;-83
2022/11/01 12:53:24;;;;;;;3.70;1.77;;;19.80;98.80;;;;;;4986631;28;20179;-87
2022/11/01 12:55:50;;;;;;;5.22;1.80;;;19.60;99.90;;;;;;4988059;28;20179;-89
2022/11/01 12:58:20;;;;;;;2.63;1.73;;;19.10;99.40;;;;;;4992259;28;20680;-89
2022/11/01 13:01:17;;;;;;;3.85;1.60;;;19.20;99.90;;;;;;4997575;28;20187;-90
2022/11/01 13:04:01;;;;;;;3.85;2.20;;;19.10;99.90;;;;;;4990762;28;20180;-91
2022/11/01 13:06:43;;;;;;;6.68;2.95;;;19.20;99.60;;;;;;4992725;28;20330;-90
2022/11/01 13:09:17;;;;;;;6.57;2.45;;;18.50;99.90;;;;;;4991624;28;20211;-90
2022/11/01 13:12:00;;;;;;;6.82;2.30;;;18.90;99.90;;;;;;4987237;28;20220;-90